Time;durP1;ratioP1;P1;durP2;ratioP2;P2;SDS_P1;SDS_P2;PMS_P1;PMS_P2;Temp;Humidity;BMP_temperature;BMP_pressure;BME280_temperature;BME280_humidity;BME280_pressure;Samples;Min_cycle;Max_cycle;Signal;HPM_P1;HPM_P2
2022/08/25 00:02:07;;;;;;;30.10;8.05;;;;;;;20.21;77.09;93855.19;5064622;28;20045;-78
2022/08/25 00:04:34;;;;;;;22.42;8.23;;;;;;;20.19;77.32;93858.28;5064371;28;20275;-78
2022/08/25 00:07:00;;;;;;;30.33;7.88;;;;;;;20.19;77.37;93852.06;5064254;28;20017;-80
2022/08/25 00:09:26;;;;;;;36.92;9.05;;;;;;;20.17;77.52;93863.28;5064644;28;20215;-80
2022/08/25 00:11:53;;;;;;;26.70;8.40;;;;;;;20.17;77.48;93857.88;5064250;28;20100;-80
2022/08/25 00:14:23;;;;;;;25.98;9.05;;;;;;;20.15;77.70;93862.88;5064292;28;20031;-79
2022/08/25 00:16:49;;;;;;;20.55;7.28;;;;;;;20.17;77.79;93855.19;5064038;28;20035;-79
2022/08/25 00:19:18;;;;;;;34.28;8.10;;;;;;;20.23;77.59;93853.69;5064238;28;20020;-79
2022/08/25 00:21:44;;;;;;;21.17;7.63;;;;;;;20.25;77.48;93861.41;5064126;28;20245;-79
2022/08/25 00:24:11;;;;;;;20.17;6.65;;;;;;;20.23;77.79;93866.41;5064244;28;20028;-79
2022/08/25 00:26:42;;;;;;;26.90;8.10;;;;;;;20.22;77.95;93860.22;5064144;28;20227;-81
2022/08/25 00:29:09;;;;;;;22.20;8.65;;;;;;;20.24;77.74;93849.81;5063996;28;20024;-82
2022/08/25 00:31:34;;;;;;;27.20;8.02;;;;;;;20.27;77.82;93842.09;5064162;28;20036;-79
2022/08/25 00:34:00;;;;;;;24.65;7.60;;;;;;;20.25;77.62;93847.88;5063827;28;20024;-79
2022/08/25 00:36:27;;;;;;;23.30;8.80;;;;;;;20.20;77.83;93843.59;5063751;28;20236;-79
2022/08/25 00:38:53;;;;;;;24.63;7.78;;;;;;;20.22;77.25;93838.56;5063945;28;20238;-79
2022/08/25 00:41:22;;;;;;;28.17;6.90;;;;;;;20.21;77.11;93855.19;5063721;28;20096;-79
2022/08/25 00:43:54;;;;;;;18.63;7.47;;;;;;;20.21;77.10;93850.56;5063797;28;20060;-79
2022/08/25 00:46:26;;;;;;;25.58;6.75;;;;;;;20.22;77.06;93852.09;5062896;28;20032;-80
2022/08/25 00:48:56;;;;;;;;;;;;;;;20.21;77.06;93861.41;5063878;28;20037;-78
2022/08/25 00:51:37;;;;;;;28.05;7.45;;;;;;;20.15;77.13;93857.47;5063552;28;20211;-82
2022/08/25 00:54:04;;;;;;;15.48;7.07;;;;;;;20.15;77.35;93857.47;5063434;28;20051;-80
2022/08/25 00:56:30;;;;;;;19.92;7.20;;;;;;;20.18;77.23;93864.84;5063474;28;20024;-80
2022/08/25 00:58:58;;;;;;;24.95;7.22;;;;;;;20.18;77.23;93851.31;5063455;28;20049;-80
2022/08/25 01:01:24;;;;;;;23.42;7.10;;;;;;;20.19;77.49;93855.59;5063584;28;20021;-80
2022/08/25 01:03:50;;;;;;;24.02;6.07;;;;;;;20.22;77.61;93852.09;5063285;28;20021;-80
2022/08/25 01:06:15;;;;;;;20.35;7.80;;;;;;;20.22;77.53;93852.09;5063511;28;20400;-80
2022/08/25 01:08:41;;;;;;;18.65;7.20;;;;;;;20.25;77.66;93839.75;5063279;28;20025;-80
2022/08/25 01:11:09;;;;;;;20.45;6.70;;;;;;;20.28;77.46;93838.25;5063503;28;20025;-80
2022/08/25 01:13:40;;;;;;;26.77;7.95;;;;;;;20.27;77.71;93837.44;5063259;28;20223;-80
2022/08/25 01:16:05;;;;;;;32.00;7.57;;;;;;;20.28;77.65;93836.31;5063257;28;20096;-80
2022/08/25 01:18:50;;;;;;;27.50;7.95;;;;;;;20.27;77.11;93821.22;5063278;28;20072;-81
2022/08/25 01:21:18;;;;;;;27.15;9.10;;;;;;;20.27;77.04;93817.72;5062845;28;20036;-81
2022/08/25 01:23:45;;;;;;;20.45;8.88;;;;;;;20.29;76.41;93816.19;5063044;28;20207;-81
2022/08/25 01:26:13;;;;;;;24.27;8.90;;;;;;;20.33;76.54;93818.94;5062874;28;20028;-79
2022/08/25 01:29:19;;;;;;;27.85;9.02;;;;;;;20.34;75.96;93817.81;5062882;28;20196;-79
2022/08/25 01:31:28;;;;;;;23.00;9.18;;;;;;;20.40;76.34;93821.72;5062737;28;20037;-81
2022/08/25 01:33:53;;;;;;;23.38;9.27;;;;;;;20.39;76.26;93825.56;5062885;28;20091;-80
2022/08/25 01:36:20;;;;;;;23.10;9.55;;;;;;;20.39;76.23;93822.84;5062772;28;20025;-81
2022/08/25 01:38:46;;;;;;;23.50;10.40;;;;;;;20.38;76.09;93822.06;5062910;28;20035;-81
2022/08/25 01:41:16;;;;;;;24.55;10.77;;;;;;;20.37;76.09;93822.44;5062742;28;20327;-80
2022/08/25 01:43:42;;;;;;;31.63;11.85;;;;;;;20.38;76.10;93815.91;5062826;28;20017;-80
2022/08/25 01:46:07;;;;;;;29.95;11.65;;;;;;;20.41;76.15;93820.53;5062773;28;20307;-80
2022/08/25 01:48:33;;;;;;;24.83;11.60;;;;;;;20.45;76.23;93826.75;5061401;28;20051;-80
2022/08/25 01:50:58;;;;;;;29.02;11.40;;;;;;;20.47;76.26;93818.28;5062618;28;20178;-80
2022/08/25 01:53:29;;;;;;;27.70;11.07;;;;;;;20.52;75.75;93826.06;5062630;28;20021;-80
2022/08/25 01:56:00;;;;;;;33.45;11.75;;;;;;;20.56;75.67;93829.56;5062609;28;20017;-80
2022/08/25 01:58:29;;;;;;;31.50;10.48;;;;;;;20.62;75.18;93820.72;5066648;28;20028;-80
2022/08/25 02:01:00;;;;;;;25.05;10.93;;;;;;;20.67;75.45;93816.09;5069176;28;20040;-79
2022/08/25 02:03:26;;;;;;;33.03;11.32;;;;;;;20.69;75.34;93813.78;5069176;28;20095;-79
2022/08/25 02:05:53;;;;;;;21.13;10.15;;;;;;;20.72;75.31;93807.59;5069026;28;20023;-79
2022/08/25 02:08:19;;;;;;;27.13;9.45;;;;;;;20.77;74.58;93805.31;5068967;28;20082;-79
2022/08/25 02:10:45;;;;;;;31.65;11.85;;;;;;;20.67;74.73;93813.41;5069251;28;20053;-80
2022/08/25 02:13:11;;;;;;;28.02;9.32;;;;;;;20.57;75.82;93810.22;5068998;28;20025;-80
2022/08/25 02:15:47;;;;;;;25.10;9.35;;;;;;;20.49;75.91;93811.31;5069283;28;20040;-78
2022/08/25 02:18:13;;;;;;;18.23;9.23;;;;;;;20.43;76.12;93807.41;5069052;28;20148;-78
2022/08/25 02:20:39;;;;;;;27.10;9.73;;;;;;;20.40;76.36;93811.66;5069236;28;20025;-78
2022/08/25 02:23:05;;;;;;;29.05;9.35;;;;;;;20.33;77.09;93813.53;5069079;28;20020;-78
2022/08/25 02:25:33;;;;;;;23.95;10.07;;;;;;;20.23;77.14;93809.59;5068818;28;20092;-78
2022/08/25 02:27:59;;;;;;;26.10;8.93;;;;;;;20.15;77.40;93802.56;5069159;28;20162;-78
2022/08/25 02:30:25;;;;;;;26.98;10.45;;;;;;;20.13;77.81;93796.75;5069059;28;20039;-79
2022/08/25 02:32:51;;;;;;;23.25;9.32;;;;;;;20.12;78.31;93806.81;5068833;28;20227;-79
2022/08/25 02:35:17;;;;;;;29.20;10.18;;;;;;;20.11;78.56;93810.69;5068759;28;20029;-78
2022/08/25 02:37:42;;;;;;;21.42;9.50;;;;;;;20.14;78.39;93799.09;5068992;28;20254;-78
2022/08/25 02:40:09;;;;;;;27.38;9.95;;;;;;;20.17;78.21;93798.34;5069062;28;20025;-78
2022/08/25 02:42:34;;;;;;;25.70;8.07;;;;;;;20.19;77.76;93809.56;5069115;28;20028;-78
2022/08/25 02:44:59;;;;;;;29.45;10.23;;;;;;;20.16;77.96;93807.59;5068585;28;20084;-78
2022/08/25 02:47:25;;;;;;;31.70;9.40;;;;;;;20.11;77.50;93812.59;5069082;28;20034;-78
2022/08/25 02:49:51;;;;;;;19.17;8.80;;;;;;;20.09;77.57;93810.28;5068802;28;20048;-78
2022/08/25 02:52:17;;;;;;;24.25;8.10;;;;;;;20.03;78.04;93804.41;5068743;28;20029;-78
2022/08/25 02:54:43;;;;;;;30.83;9.40;;;;;;;20.04;78.06;93813.31;5068618;28;20096;-78
2022/08/25 02:57:10;;;;;;;22.67;8.82;;;;;;;20.01;78.10;93812.13;5068782;28;20036;-78
2022/08/25 02:59:36;;;;;;;29.95;8.80;;;;;;;19.99;77.45;93811.72;5069074;28;20028;-78
2022/08/25 03:02:02;;;;;;;28.58;9.88;;;;;;;19.98;77.59;93814.81;5068625;28;20223;-78
2022/08/25 03:04:28;;;;;;;24.23;7.57;;;;;;;19.98;77.51;93820.22;5067339;28;20025;-79
2022/08/25 03:06:54;;;;;;;24.83;8.38;;;;;;;19.97;77.54;93813.25;5068644;28;20111;-79
2022/08/25 03:09:19;;;;;;;23.58;9.13;;;;;;;20.03;77.89;93817.19;5066843;28;20020;-78
2022/08/25 03:11:46;;;;;;;25.30;8.13;;;;;;;20.04;77.62;93819.50;5065494;28;20048;-79
2022/08/25 03:14:11;;;;;;;26.48;7.80;;;;;;;20.05;77.77;93825.69;5065324;28;20067;-79
2022/08/25 03:16:37;;;;;;;27.38;8.23;;;;;;;20.04;77.70;93822.19;5065305;28;20024;-80
2022/08/25 03:19:03;;;;;;;30.08;8.98;;;;;;;20.01;77.56;93827.59;5065331;28;20267;-79
2022/08/25 03:21:29;;;;;;;35.33;7.70;;;;;;;19.99;77.24;93817.16;5065414;28;20052;-79
2022/08/25 03:23:57;;;;;;;23.17;8.15;;;;;;;19.95;77.42;93812.84;5065273;28;20020;-79
2022/08/25 03:29:07;;;;;;;21.42;8.07;;;;;;;19.93;77.12;93812.47;5065454;28;20070;-79
2022/08/25 03:31:34;;;;;;;16.83;8.32;;;;;;;19.90;77.70;93824.78;5065076;28;20021;-79
2022/08/25 03:34:00;;;;;;;28.30;9.50;;;;;;;19.90;77.61;93824.78;5065128;28;20092;-79
2022/08/25 03:36:26;;;;;;;30.60;9.15;;;;;;;19.89;77.62;93820.53;5064941;28;20017;-79
2022/08/25 03:38:52;;;;;;;31.20;7.45;;;;;;;19.94;77.71;93827.53;5064904;28;20338;-79
2022/08/25 03:41:21;;;;;;;27.30;8.93;;;;;;;19.98;78.08;93818.28;5065092;28;20197;-79
2022/08/25 03:43:47;;;;;;;24.90;7.15;;;;;;;20.00;77.75;93821.38;5065091;28;20037;-78
2022/08/25 03:46:21;;;;;;;19.75;8.32;;;;;;;20.03;77.60;93819.88;5064900;28;20212;-80
2022/08/25 03:48:47;;;;;;;23.92;8.77;;;;;;;20.04;77.05;93813.31;5064880;28;20266;-78
2022/08/25 03:51:25;;;;;;;25.35;8.55;;;;;;;20.03;77.04;93811.78;5064592;28;20136;-79
2022/08/25 03:53:52;;;;;;;22.35;9.40;;;;;;;19.99;77.36;93811.72;5064344;28;20025;-79
2022/08/25 03:56:18;;;;;;;19.17;8.82;;;;;;;19.94;77.57;93806.66;5064807;28;20025;-79
2022/08/25 03:58:43;;;;;;;18.27;8.85;;;;;;;19.91;77.76;93807.41;5064743;28;20032;-79
2022/08/25 04:01:09;;;;;;;28.48;8.45;;;;;;;19.89;77.93;93808.94;5063422;28;20223;-79
2022/08/25 04:03:35;;;;;;;30.23;8.25;;;;;;;19.88;78.08;93807.38;5064559;28;20088;-79
2022/08/25 04:06:02;;;;;;;25.00;9.20;;;;;;;19.86;78.46;93806.97;5064586;28;20219;-79
2022/08/25 04:08:27;;;;;;;22.20;9.65;;;;;;;19.91;78.64;93804.72;5064627;28;20021;-79
2022/08/25 04:10:54;;;;;;;28.33;8.48;;;;;;;19.93;78.47;93805.13;5064667;28;20358;-79
2022/08/25 04:13:19;;;;;;;49.22;10.55;;;;;;;19.99;78.52;93810.97;5064441;28;20035;-80
2022/08/25 04:15:45;;;;;;;31.77;8.88;;;;;;;20.05;77.79;93820.28;5064136;28;20029;-79
2022/08/25 04:18:12;;;;;;;37.08;9.02;;;;;;;20.08;78.08;93814.13;5064444;28;20028;-79
2022/08/25 04:20:38;;;;;;;30.80;9.52;;;;;;;20.16;78.15;93818.44;5063746;28;20044;-80
2022/08/25 04:23:04;;;;;;;27.77;9.35;;;;;;;20.14;78.05;93814.56;5063935;28;20258;-80
2022/08/25 04:25:30;;;;;;;24.17;9.27;;;;;;;20.14;77.90;93801.03;5063894;28;20047;-80
2022/08/25 04:27:56;;;;;;;25.27;9.43;;;;;;;20.20;78.15;93802.22;5064177;28;20021;-80
2022/08/25 04:30:22;;;;;;;27.75;10.15;;;;;;;20.23;77.80;93794.16;5064012;28;20028;-80
2022/08/25 04:32:48;;;;;;;27.33;9.02;;;;;;;20.23;77.30;93796.84;5063817;28;20031;-79
2022/08/25 04:35:14;;;;;;;25.90;8.57;;;;;;;20.27;76.77;93799.56;5063686;28;20052;-77
2022/08/25 04:37:40;;;;;;;25.20;8.85;;;;;;;20.31;77.42;93797.66;5063834;28;20270;-78
2022/08/25 04:40:06;;;;;;;22.52;9.02;;;;;;;20.37;77.27;93803.50;5062894;28;20115;-78
2022/08/25 04:42:31;;;;;;;23.90;9.35;;;;;;;20.41;76.92;93798.88;5062654;28;20032;-78
2022/08/25 04:44:57;;;;;;;25.67;9.38;;;;;;;20.48;76.24;93806.31;5063806;28;20088;-78
2022/08/25 04:47:23;;;;;;;24.88;8.88;;;;;;;20.51;76.00;93809.00;5063646;28;20029;-79
2022/08/25 04:49:48;;;;;;;34.42;10.10;;;;;;;20.49;76.12;93811.31;5063464;28;20214;-79
2022/08/25 04:52:14;;;;;;;28.23;8.88;;;;;;;20.54;76.22;93819.09;5063637;28;20088;-79
2022/08/25 04:54:39;;;;;;;39.15;9.25;;;;;;;20.54;76.30;93819.09;5063468;28;20036;-79
2022/08/25 04:57:05;;;;;;;27.63;9.45;;;;;;;20.56;75.88;93819.50;5063414;28;20025;-81
2022/08/25 04:59:31;;;;;;;22.38;9.88;;;;;;;20.61;75.37;93824.56;5063546;28;20032;-80
2022/08/25 05:02:00;;;;;;;27.73;8.18;;;;;;;20.67;75.66;93829.66;5063509;28;20028;-81
2022/08/25 05:04:26;;;;;;;28.92;8.93;;;;;;;20.70;74.22;93826.16;5063341;28;20080;-80
2022/08/25 05:06:51;;;;;;;22.13;8.80;;;;;;;20.70;74.00;93823.47;5063156;28;20303;-80
2022/08/25 05:09:17;;;;;;;28.67;9.68;;;;;;;20.67;74.50;93816.09;5063394;28;20025;-80
2022/08/25 05:11:42;;;;;;;26.40;9.57;;;;;;;20.64;74.66;93823.84;5063221;28;20056;-79
2022/08/25 05:14:10;;;;;;;25.70;10.85;;;;;;;20.66;74.88;93818.03;5063224;28;20025;-80
2022/08/25 05:16:36;;;;;;;40.60;8.52;;;;;;;20.67;74.30;93816.88;5063117;28;20087;-79
2022/08/25 05:19:03;;;;;;;34.05;9.75;;;;;;;20.68;74.38;93818.44;5062895;28;20105;-79
2022/08/25 05:21:28;;;;;;;36.20;8.65;;;;;;;20.72;74.52;93811.13;5062913;28;20375;-81
2022/08/25 05:23:58;;;;;;;27.55;10.32;;;;;;;20.73;74.75;93811.88;5062824;28;20063;-80
2022/08/25 05:26:26;;;;;;;21.45;8.93;;;;;;;20.68;75.39;93806.81;5062440;28;20040;-80
2022/08/25 05:28:53;;;;;;;17.15;8.23;;;;;;;20.64;75.53;93799.47;5062562;28;20089;-77
2022/08/25 05:31:20;;;;;;;25.45;9.07;;;;;;;20.64;75.55;93804.88;5062231;28;20017;-77
2022/08/25 05:33:46;;;;;;;20.80;7.78;;;;;;;20.64;74.63;93796.75;5060647;28;20016;-78
2022/08/25 05:36:13;;;;;;;22.27;7.50;;;;;;;20.65;73.41;93797.53;5062526;28;20338;-78
2022/08/25 05:38:40;;;;;;;33.13;10.57;;;;;;;20.62;73.28;93801.78;5062810;28;20031;-78
2022/08/25 05:41:11;;;;;;;27.38;8.18;;;;;;;20.57;73.67;93799.38;5062794;28;20084;-78
2022/08/25 05:43:39;;;;;;;29.67;8.13;;;;;;;20.63;73.76;93806.00;5062627;28;20048;-80
2022/08/25 05:46:05;;;;;;;24.08;8.40;;;;;;;20.70;73.94;93804.50;5062811;28;20017;-78
2022/08/25 05:48:30;;;;;;;32.80;8.45;;;;;;;20.79;74.04;93807.66;5062690;28;20020;-81
2022/08/25 05:50:58;;;;;;;32.17;9.05;;;;;;;20.88;74.04;93808.06;5062324;28;20054;-78
2022/08/25 05:53:25;;;;;;;20.52;7.72;;;;;;;20.89;72.10;93812.34;5062513;28;20113;-78
2022/08/25 05:55:52;;;;;;;26.33;8.05;;;;;;;20.96;72.36;93806.19;5062297;28;20059;-78
2022/08/25 05:58:19;;;;;;;35.47;8.13;;;;;;;21.01;72.27;93808.53;5062280;28;20337;-80
2022/08/25 06:00:44;;;;;;;28.65;8.82;;;;;;;21.07;72.06;93806.25;5061549;28;20024;-80
2022/08/25 06:03:11;;;;;;;22.42;8.10;;;;;;;21.12;72.31;93808.59;5062653;28;20048;-78
2022/08/25 06:05:36;;;;;;;28.38;10.82;;;;;;;21.17;72.09;93808.22;5062627;28;20043;-78
2022/08/25 06:08:02;;;;;;;23.58;8.10;;;;;;;21.21;70.25;93812.50;5062283;28;20029;-77
2022/08/25 06:10:28;;;;;;;31.20;10.02;;;;;;;21.23;71.57;93801.28;5062369;28;20021;-78
2022/08/25 06:12:53;;;;;;;18.45;7.47;;;;;;;21.28;71.52;93811.75;5062212;28;20025;-77
2022/08/25 06:15:22;;;;;;;27.90;8.57;;;;;;;21.27;71.43;93807.50;5062016;28;20045;-77
2022/08/25 06:17:51;;;;;;;33.53;9.00;;;;;;;21.30;72.03;93814.06;5062252;28;20111;-77
2022/08/25 06:20:20;;;;;;;27.50;8.50;;;;;;;21.31;70.69;93811.00;5062455;28;20021;-76
2022/08/25 06:22:46;;;;;;;32.38;9.32;;;;;;;21.32;71.13;93812.53;5062316;28;20040;-77
2022/08/25 06:25:13;;;;;;;29.00;8.70;;;;;;;21.34;71.52;93809.44;5062217;28;20088;-77
2022/08/25 06:27:39;;;;;;;23.05;8.50;;;;;;;21.36;71.03;93807.91;5062276;28;20047;-77
2022/08/25 06:30:10;;;;;;;24.80;8.60;;;;;;;21.42;71.43;93806.41;5062275;28;20021;-77
2022/08/25 06:32:38;;;;;;;17.95;7.95;;;;;;;21.46;71.10;93808.34;5062151;28;20088;-77
2022/08/25 06:35:07;;;;;;;22.83;7.53;;;;;;;21.58;70.01;93813.41;5062147;28;20036;-76
2022/08/25 06:37:33;;;;;;;22.85;8.02;;;;;;;21.58;69.32;93813.41;5061965;28;20067;-76
2022/08/25 06:39:58;;;;;;;24.70;7.85;;;;;;;21.54;68.87;93801.78;5061824;28;20339;-76
2022/08/25 06:42:24;;;;;;;18.95;7.50;;;;;;;21.61;68.40;93805.28;5061991;28;20029;-76
2022/08/25 06:44:49;;;;;;;25.13;8.88;;;;;;;21.69;67.87;93811.50;5062186;28;20049;-76
2022/08/25 06:47:16;;;;;;;46.58;13.02;;;;;;;21.71;68.55;93805.69;5064636;28;20315;-75
2022/08/25 06:49:42;;;;;;;29.52;8.90;;;;;;;21.81;67.70;93802.97;5065498;28;20220;-76
2022/08/25 06:52:08;;;;;;;27.33;9.32;;;;;;;21.86;67.56;93803.75;5065996;28;20353;-76
2022/08/25 06:54:34;;;;;;;25.92;7.70;;;;;;;21.99;68.31;93810.38;5065225;28;20021;-76
2022/08/25 06:56:59;;;;;;;29.25;7.43;;;;;;;22.09;67.00;93812.31;5064924;28;20033;-76
2022/08/25 06:59:25;;;;;;;22.73;7.13;;;;;;;22.17;67.53;93803.00;5065524;28;20035;-76
2022/08/25 07:01:51;;;;;;;18.88;8.13;;;;;;;22.28;67.14;93805.75;5065431;28;20028;-76
2022/08/25 07:04:17;;;;;;;23.15;6.38;;;;;;;22.46;66.42;93813.88;5065229;28;20071;-76
2022/08/25 07:06:42;;;;;;;21.65;6.25;;;;;;;22.68;65.74;93819.28;5065511;28;20013;-76
2022/08/25 07:09:09;;;;;;;23.92;7.65;;;;;;;22.86;63.56;93806.44;5065673;28;20040;-76
2022/08/25 07:11:35;;;;;;;23.38;6.07;;;;;;;22.92;62.92;93810.31;5065162;28;20100;-78
2022/08/25 07:14:02;;;;;;;29.08;5.65;;;;;;;22.98;61.75;93808.75;5065266;28;20176;-77
2022/08/25 07:16:28;;;;;;;24.20;6.07;;;;;;;23.06;61.39;93808.72;5064882;28;20025;-77
2022/08/25 07:18:55;;;;;;;19.90;5.63;;;;;;;23.12;62.10;93815.31;5065169;28;20357;-77
2022/08/25 07:21:22;;;;;;;28.15;7.10;;;;;;;23.19;62.13;93813.34;5065172;28;20422;-77
2022/08/25 07:23:48;;;;;;;24.38;6.25;;;;;;;23.22;62.21;93814.50;5064857;28;20052;-77
2022/08/25 07:26:16;;;;;;;17.90;6.32;;;;;;;23.29;61.83;93809.03;5064918;28;20082;-76
2022/08/25 07:28:42;;;;;;;28.77;7.15;;;;;;;23.36;60.66;93800.84;5065308;28;20032;-77
2022/08/25 07:31:08;;;;;;;21.60;5.20;;;;;;;23.52;60.63;93802.31;5065191;28;20219;-78
2022/08/25 07:33:34;;;;;;;28.40;7.25;;;;;;;23.57;60.52;93805.41;5065026;28;20021;-78
2022/08/25 07:36:00;;;;;;;19.00;6.07;;;;;;;23.74;59.81;93811.13;5063850;28;20319;-77
2022/08/25 07:38:25;;;;;;;20.20;5.38;;;;;;;23.86;58.52;93810.69;5064992;28;20032;-77
2022/08/25 07:40:53;;;;;;;29.15;6.63;;;;;;;23.90;56.48;93806.00;5064890;28;20078;-79
2022/08/25 07:43:20;;;;;;;28.85;5.03;;;;;;;23.94;56.33;93814.16;5064921;28;20017;-77
2022/08/25 07:45:46;;;;;;;28.00;6.65;;;;;;;23.88;56.81;93811.06;5064909;28;20021;-77
2022/08/25 07:48:12;;;;;;;26.58;5.80;;;;;;;23.92;57.13;93811.06;5064768;28;20031;-78
2022/08/25 07:50:41;;;;;;;31.80;6.82;;;;;;;23.99;58.75;93816.44;5064564;28;20032;-77
2022/08/25 07:53:08;;;;;;;26.48;6.13;;;;;;;24.05;56.51;93811.34;5064846;28;20338;-78
2022/08/25 07:55:37;;;;;;;28.92;5.60;;;;;;;24.03;57.34;93811.75;5064292;28;20017;-77
2022/08/25 07:58:07;;;;;;;29.63;6.85;;;;;;;24.15;56.58;93816.72;5064533;28;20199;-79
2022/08/25 08:00:35;;;;;;;35.90;5.63;;;;;;;24.21;56.05;93806.94;5064564;28;20216;-78
2022/08/25 08:03:03;;;;;;;25.02;6.32;;;;;;;24.24;56.35;93802.63;5064465;28;20100;-78
2022/08/25 08:05:28;;;;;;;24.00;6.38;;;;;;;24.36;54.98;93810.34;5064363;28;20452;-78
2022/08/25 08:07:55;;;;;;;25.48;5.22;;;;;;;24.44;55.22;93802.84;5064376;28;20100;-77
2022/08/25 08:10:22;;;;;;;29.48;6.13;;;;;;;24.55;54.35;93802.81;5064391;28;20028;-78
2022/08/25 08:12:48;;;;;;;28.58;8.32;;;;;;;24.55;54.71;93805.53;5064211;28;20048;-79
2022/08/25 08:15:14;;;;;;;52.00;19.23;;;;;;;24.56;55.08;93805.09;5064226;28;20215;-77
2022/08/25 08:17:40;;;;;;;76.63;23.98;;;;;;;24.52;55.73;93798.91;5064179;28;20021;-78
2022/08/25 08:20:08;;;;;;;36.33;6.75;;;;;;;24.49;55.12;93796.97;5064248;28;20028;-78
2022/08/25 08:22:40;;;;;;;42.50;7.60;;;;;;;24.62;55.86;93791.81;5064046;28;20017;-77
2022/08/25 08:25:07;;;;;;;44.83;8.38;;;;;;;24.60;54.60;93786.78;5064375;28;20013;-77
2022/08/25 08:27:33;;;;;;;33.40;7.10;;;;;;;24.71;53.52;93783.16;5064240;28;20027;-77
2022/08/25 08:29:59;;;;;;;42.17;6.15;;;;;;;24.90;53.65;93782.59;5064007;28;20025;-77
2022/08/25 08:32:24;;;;;;;47.17;6.72;;;;;;;25.09;53.44;93783.91;5064259;28;20072;-77
2022/08/25 08:34:50;;;;;;;35.45;7.03;;;;;;;25.31;53.15;93775.50;5064037;28;20090;-77
2022/08/25 08:37:15;;;;;;;38.85;7.80;;;;;;;25.55;52.12;93779.88;5063883;28;20132;-78
2022/08/25 08:39:41;;;;;;;35.90;7.10;;;;;;;25.74;51.48;93775.69;5063825;28;20024;-77
2022/08/25 08:42:32;;;;;;;28.80;5.85;;;;;;;25.93;51.03;93777.03;5062649;28;20052;-77
2022/08/25 08:45:25;;;;;;;44.45;6.45;;;;;;;26.08;50.45;93783.03;5063644;28;20330;-77
2022/08/25 08:48:20;;;;;;;30.48;9.35;;;;;;;26.15;51.11;93780.16;5063588;28;20079;-77
2022/08/25 08:50:48;;;;;;;29.10;8.57;;;;;;;26.09;50.08;93776.38;5095779;28;20116;-77
2022/08/25 08:53:14;;;;;;;33.55;10.25;;;;;;;26.02;51.74;93777.25;5063636;28;20199;-76
2022/08/25 08:55:43;;;;;;;28.88;5.80;;;;;;;25.93;50.55;93774.28;5063365;28;20036;-77
2022/08/25 08:58:18;;;;;;;32.08;6.55;;;;;;;25.89;48.54;93773.53;5063763;28;20095;-76
2022/08/25 09:00:47;;;;;;;35.78;7.38;;;;;;;25.95;49.67;93773.84;5063486;28;20063;-76
2022/08/25 09:03:36;;;;;;;30.52;6.55;;;;;;;25.98;49.13;93781.25;5063401;28;20056;-76
2022/08/25 09:06:09;;;;;;;34.80;5.53;;;;;;;25.96;48.26;93773.44;5063462;28;20215;-76
2022/08/25 09:08:37;;;;;;;34.47;6.57;;;;;;;25.97;48.72;93775.00;5062725;28;20323;-76
2022/08/25 09:11:16;;;;;;;39.95;6.57;;;;;;;26.04;49.22;93776.09;5063321;28;20047;-76
2022/08/25 09:14:10;;;;;;;33.50;5.30;;;;;;;26.22;45.58;93769.16;5063127;28;20059;-77
2022/08/25 09:16:56;;;;;;;44.92;5.90;;;;;;;26.32;45.28;93777.59;5063369;28;20375;-77
2022/08/25 09:19:40;;;;;;;40.95;5.25;;;;;;;26.45;47.48;93770.31;5063190;28;20116;-78
2022/08/25 09:22:14;;;;;;;40.65;6.20;;;;;;;26.60;46.57;93755.25;5063249;28;20020;-78
2022/08/25 09:24:51;;;;;;;37.33;5.45;;;;;;;26.68;46.64;93766.03;5062889;28;20029;-77
2022/08/25 09:27:43;;;;;;;43.38;5.88;;;;;;;26.75;46.42;93757.72;5063254;28;20307;-78
2022/08/25 09:30:13;;;;;;;37.42;6.55;;;;;;;26.86;45.52;93768.47;5062918;28;20033;-78
2022/08/25 09:32:46;;;;;;;25.85;5.47;;;;;;;26.88;46.13;93764.09;5063146;28;20028;-78
2022/08/25 09:35:27;;;;;;;38.08;6.13;;;;;;;26.87;45.66;93765.31;5062676;28;20032;-78
2022/08/25 09:38:04;;;;;;;44.22;7.38;;;;;;;26.85;44.79;93764.97;5063088;28;20027;-77
2022/08/25 09:40:34;;;;;;;24.30;6.35;;;;;;;27.05;44.85;93761.44;5062671;28;20021;-77
2022/08/25 09:43:04;;;;;;;40.78;6.22;;;;;;;27.16;44.17;93756.53;5062942;28;20102;-78
2022/08/25 09:45:36;;;;;;;32.95;5.53;;;;;;;27.28;42.91;93768.84;5063135;28;20025;-77
2022/08/25 09:48:01;;;;;;;30.92;6.13;;;;;;;27.24;43.38;93762.69;5062788;28;20025;-78
2022/08/25 09:50:31;;;;;;;54.08;6.07;;;;;;;27.07;42.83;93759.84;5062772;28;20053;-78
2022/08/25 09:53:13;;;;;;;35.13;4.75;;;;;;;26.75;43.08;93771.41;5062691;28;20028;-77
2022/08/25 09:55:41;;;;;;;31.23;5.32;;;;;;;26.58;44.51;93763.09;5062234;28;20032;-78
2022/08/25 09:58:20;;;;;;;37.95;6.30;;;;;;;26.59;44.58;93769.34;5062549;28;20021;-78
2022/08/25 10:01:19;;;;;;;30.92;5.05;;;;;;;26.66;43.58;93776.63;5062434;28;20025;-78
2022/08/25 10:04:04;;;;;;;58.22;6.65;;;;;;;26.79;43.49;93772.09;5062277;28;20036;-78
2022/08/25 10:06:43;;;;;;;34.22;6.65;;;;;;;26.80;42.10;93768.94;5061570;28;20075;-78
2022/08/25 10:09:20;;;;;;;26.42;3.92;;;;;;;26.79;41.88;93761.16;5061572;28;20047;-78
2022/08/25 10:11:47;;;;;;;36.10;3.80;;;;;;;26.83;41.80;93767.34;5062435;28;20049;-78
2022/08/25 10:14:39;;;;;;;26.38;4.18;;;;;;;26.80;42.49;93779.88;5062732;28;20227;-78
2022/08/25 10:17:23;;;;;;;36.83;5.13;;;;;;;26.87;41.49;93784.44;5060509;28;20033;-78
2022/08/25 10:19:49;;;;;;;22.98;4.53;;;;;;;26.81;41.12;93769.72;5065952;28;20024;-78
2022/08/25 10:22:25;;;;;;;37.08;4.63;;;;;;;26.77;42.04;93775.25;5066456;28;20025;-77
2022/08/25 10:24:51;;;;;;;34.55;4.82;;;;;;;26.85;42.79;93773.16;5066371;28;20063;-77
2022/08/25 10:27:46;;;;;;;32.55;5.00;;;;;;;26.81;43.28;93764.25;5066668;28;20192;-77
2022/08/25 10:30:24;;;;;;;33.33;5.13;;;;;;;26.81;42.81;93758.78;5066706;28;20139;-77
2022/08/25 10:32:52;;;;;;;26.42;4.00;;;;;;;26.85;42.65;93766.91;5066429;28;20055;-81
2022/08/25 10:35:23;;;;;;;25.35;5.15;;;;;;;26.95;43.51;93763.97;5066291;28;20036;-81
2022/08/25 10:38:14;;;;;;;39.60;6.53;;;;;;;26.87;41.90;93762.56;5066711;28;20081;-83
2022/08/25 10:40:46;;;;;;;32.30;4.10;;;;;;;26.82;41.55;93754.84;5066122;28;20028;-77
2022/08/25 10:43:30;;;;;;;35.63;3.92;;;;;;;26.84;42.69;93752.47;5066367;28;20035;-78
2022/08/25 10:46:11;;;;;;;48.22;8.63;;;;;;;26.91;42.90;93746.06;5066151;28;20040;-80
2022/08/25 10:48:54;;;;;;;22.48;5.03;;;;;;;26.73;40.33;93743.72;5066588;28;20031;-81
2022/08/25 10:51:38;;;;;;;25.80;4.80;;;;;;;26.92;40.41;93745.66;5066059;28;20090;-80
2022/08/25 10:54:29;;;;;;;24.48;3.50;;;;;;;27.09;40.92;93740.25;5066113;28;20029;-78
2022/08/25 10:57:06;;;;;;;24.83;4.30;;;;;;;27.36;40.39;93732.69;5066036;28;20028;-79
2022/08/25 11:00:08;;;;;;;28.52;3.85;;;;;;;27.59;38.46;93734.53;5065899;28;20092;-80
2022/08/25 11:03:11;;;;;;;36.90;3.70;;;;;;;27.80;38.76;93738.75;5065970;28;20021;-78
2022/08/25 11:05:44;;;;;;;26.80;4.07;;;;;;;27.91;37.85;93733.06;5066052;28;20017;-78
2022/08/25 11:08:15;;;;;;;20.38;3.25;;;;;;;27.97;37.70;93731.34;5065737;28;20066;-78
2022/08/25 11:10:55;;;;;;;33.53;3.70;;;;;;;28.13;38.55;93725.09;5065710;28;20315;-76
2022/08/25 11:13:28;;;;;;;31.70;4.22;;;;;;;28.26;37.56;93725.16;5065536;28;20594;-78
2022/08/25 11:16:01;;;;;;;24.50;3.47;;;;;;;28.19;37.97;93719.84;5065317;28;20033;-78
2022/08/25 11:18:30;;;;;;;19.88;3.53;;;;;;;28.27;39.02;93721.25;5065654;28;20048;-79
2022/08/25 11:21:24;;;;;;;25.95;3.95;;;;;;;28.33;38.34;93721.47;5065472;28;20021;-79
2022/08/25 11:24:14;;;;;;;18.42;3.40;;;;;;;28.47;38.95;93718.34;5065645;28;20048;-78
2022/08/25 11:26:47;;;;;;;27.50;5.22;;;;;;;28.44;37.00;93713.75;5065676;28;20021;-80
2022/08/25 11:29:17;;;;;;;40.95;5.25;;;;;;;28.30;37.49;93712.16;5065787;28;20025;-79
2022/08/25 11:31:46;;;;;;;28.33;3.58;;;;;;;28.24;40.41;93704.88;5064886;28;20024;-78
2022/08/25 11:34:17;;;;;;;24.60;3.70;;;;;;;28.19;38.76;93703.41;5064006;28;20023;-78
2022/08/25 11:36:50;;;;;;;21.98;3.70;;;;;;;28.06;38.19;93697.88;5065257;28;20032;-78
2022/08/25 11:39:21;;;;;;;20.92;3.63;;;;;;;28.15;38.54;93692.56;5065257;28;20094;-78